createdAt,value
2023-02-01T00:01:24.587Z,5.60
2023-02-01T00:03:52.752Z,5.50
2023-02-01T00:06:22.407Z,5.50
2023-02-01T00:08:51.191Z,5.60
2023-02-01T00:11:19.486Z,5.60
2023-02-01T00:13:47.608Z,5.60
2023-02-01T00:16:18.487Z,5.60
2023-02-01T00:18:47.379Z,5.60
2023-02-01T00:21:17.057Z,5.50
2023-02-01T00:23:46.633Z,5.60
2023-02-01T00:26:18.094Z,5.70
2023-02-01T00:28:46.517Z,5.70
2023-02-01T00:31:14.892Z,5.70
2023-02-01T00:33:43.226Z,5.70
2023-02-01T00:36:12.045Z,5.60
2023-02-01T00:38:40.690Z,5.60
2023-02-01T00:41:13.800Z,5.60
2023-02-01T00:43:42.734Z,5.60
2023-02-01T00:46:11.733Z,5.50
2023-02-01T00:48:40.540Z,5.50
2023-02-01T00:51:10.497Z,5.50
2023-02-01T00:53:39.482Z,5.50
2023-02-01T00:56:09.522Z,5.50
2023-02-01T00:58:38.420Z,5.40
2023-02-01T01:01:08.873Z,5.40
2023-02-01T01:03:39.523Z,5.40
2023-02-01T01:06:12.649Z,5.50
2023-02-01T01:08:41.602Z,5.60
2023-02-01T01:11:14.776Z,5.50
2023-02-01T01:13:43.425Z,5.60
2023-02-01T01:16:13.500Z,5.60
2023-02-01T01:18:42.399Z,5.40
2023-02-01T01:21:13.858Z,5.40
2023-02-01T01:23:42.069Z,5.40
2023-02-01T01:26:19.115Z,5.50
2023-02-01T01:28:48.050Z,5.50
2023-02-01T01:31:19.014Z,5.60
2023-02-01T01:33:51.017Z,5.60
2023-02-01T01:36:19.292Z,5.70
2023-02-01T01:38:48.149Z,5.50
2023-02-01T01:41:21.609Z,5.60
2023-02-01T01:43:55.299Z,5.50
2023-02-01T01:46:27.300Z,5.50
2023-02-01T01:49:01.534Z,5.50
2023-02-01T01:51:32.051Z,5.50
2023-02-01T01:54:04.880Z,5.40
2023-02-01T01:56:36.762Z,5.50
2023-02-01T01:59:06.860Z,5.50
2023-02-01T02:01:35.033Z,5.50
2023-02-01T02:04:04.376Z,5.40
2023-02-01T02:06:48.850Z,5.50
2023-02-01T02:09:17.370Z,5.40
2023-02-01T02:11:46.962Z,5.40
2023-02-01T02:14:18.720Z,5.50
2023-02-01T02:16:58.271Z,5.30
2023-02-01T02:19:51.206Z,5.40
2023-02-01T02:22:46.815Z,5.50
2023-02-01T02:25:41.343Z,5.50
2023-02-01T02:28:19.658Z,5.40
2023-02-01T02:31:06.444Z,5.40
2023-02-01T02:33:54.054Z,5.50
2023-02-01T02:36:34.272Z,5.50
2023-02-01T02:39:09.863Z,5.50
2023-02-01T02:42:07.316Z,5.50
2023-02-01T02:44:59.863Z,5.50
2023-02-01T02:47:33.547Z,5.50
2023-02-01T02:50:31.211Z,5.50
2023-02-01T02:53:23.416Z,5.50
2023-02-01T02:55:53.347Z,5.40
2023-02-01T02:58:40.808Z,5.30
2023-02-01T03:01:27.028Z,5.40
2023-02-01T03:04:11.758Z,5.40
2023-02-01T03:06:43.799Z,5.40
2023-02-01T03:09:18.330Z,5.40
2023-02-01T03:12:08.443Z,5.30
2023-02-01T03:14:38.798Z,5.30
2023-02-01T03:17:15.363Z,5.30
2023-02-01T03:19:51.168Z,5.30
2023-02-01T03:22:25.382Z,5.30
2023-02-01T03:24:56.337Z,5.30
2023-02-01T03:27:29.708Z,5.20
2023-02-01T03:30:04.698Z,5.30
2023-02-01T03:32:53.431Z,5.30
2023-02-01T03:35:26.581Z,5.30
2023-02-01T03:38:02.509Z,5.30
2023-02-01T03:40:35.345Z,5.40
2023-02-01T03:43:07.088Z,5.30
2023-02-01T03:45:41.924Z,5.40
2023-02-01T03:48:12.632Z,5.30
2023-02-01T03:50:45.736Z,5.40
2023-02-01T03:53:20.060Z,5.30
2023-02-01T03:55:49.076Z,5.30
2023-02-01T03:58:20.602Z,5.30
2023-02-01T04:00:54.232Z,5.20
2023-02-01T04:03:23.849Z,5.30
2023-02-01T04:05:52.601Z,5.30
2023-02-01T04:08:26.372Z,5.30
2023-02-01T04:10:54.611Z,5.30
2023-02-01T04:13:22.805Z,5.20
2023-02-01T04:15:51.695Z,5.20
2023-02-01T04:18:20.028Z,5.20
2023-02-01T04:20:48.181Z,5.30
2023-02-01T04:23:17.153Z,5.40
2023-02-01T04:25:46.773Z,5.30
2023-02-01T04:28:15.094Z,5.30
2023-02-01T04:30:43.395Z,5.30
2023-02-01T04:33:15.038Z,5.30
2023-02-01T04:35:43.333Z,5.30
2023-02-01T04:38:11.534Z,5.30
2023-02-01T04:40:40.064Z,5.30
2023-02-01T04:43:09.679Z,5.30
2023-02-01T04:45:37.854Z,5.40
2023-02-01T04:48:06.758Z,5.40
2023-02-01T04:50:34.910Z,5.40
2023-02-01T04:53:03.280Z,5.40
2023-02-01T04:55:31.785Z,5.40
2023-02-01T04:57:59.951Z,5.30
2023-02-01T05:00:29.702Z,5.40
2023-02-01T05:02:58.177Z,5.50
2023-02-01T05:05:26.625Z,5.50
2023-02-01T05:07:54.905Z,5.40
2023-02-01T05:10:23.904Z,5.50
2023-02-01T05:13:09.990Z,5.50
2023-02-01T05:15:39.644Z,5.50
2023-02-01T05:18:08.172Z,5.50
2023-02-01T05:20:36.503Z,5.40
2023-02-01T05:23:04.740Z,5.40
2023-02-01T05:25:33.044Z,5.50
2023-02-01T05:28:01.134Z,5.40
2023-02-01T05:30:29.430Z,5.40
2023-02-01T05:32:59.219Z,5.40
2023-02-01T05:35:27.395Z,5.40
2023-02-01T05:37:55.650Z,5.40
2023-02-01T05:40:24.462Z,5.50
2023-02-01T05:42:52.830Z,5.50
2023-02-01T05:45:21.131Z,5.50
2023-02-01T05:47:49.237Z,5.40
2023-02-01T05:50:19.517Z,5.40
2023-02-01T05:52:56.936Z,5.40
2023-02-01T05:55:25.202Z,5.40
2023-02-01T05:57:53.396Z,5.40
2023-02-01T06:00:22.743Z,5.40
2023-02-01T06:02:51.153Z,5.40
2023-02-01T06:05:20.780Z,5.40
2023-02-01T06:07:49.154Z,5.30
2023-02-01T06:10:17.931Z,5.40
2023-02-01T06:12:46.400Z,5.50
2023-02-01T06:15:16.750Z,5.40
2023-02-01T06:17:46.487Z,5.30
2023-02-01T06:20:16.930Z,5.40
2023-02-01T06:22:46.515Z,5.40
2023-02-01T06:25:14.792Z,5.40
2023-02-01T06:27:42.877Z,5.40
2023-02-01T06:30:14.594Z,5.40
2023-02-01T06:32:45.925Z,5.40
2023-02-01T06:35:17.241Z,5.30
2023-02-01T06:37:47.162Z,5.20
2023-02-01T06:40:15.592Z,5.20
2023-02-01T06:42:43.791Z,5.20
2023-02-01T06:45:12.623Z,5.20
2023-02-01T06:47:40.768Z,5.00
2023-02-01T06:50:10.098Z,5.10
2023-02-01T06:52:38.426Z,5.20
2023-02-01T06:55:09.550Z,5.20
2023-02-01T06:57:37.868Z,5.20
2023-02-01T07:00:07.413Z,5.10
2023-02-01T07:02:35.683Z,5.10
2023-02-01T07:05:03.827Z,5.10
2023-02-01T07:07:32.041Z,5.00
2023-02-01T07:10:00.141Z,5.10
2023-02-01T07:12:29.688Z,5.00
2023-02-01T07:14:58.392Z,5.10
2023-02-01T07:17:26.645Z,5.10
2023-02-01T07:19:54.837Z,5.00
2023-02-01T07:22:23.157Z,5.00
2023-02-01T07:24:51.197Z,5.00
2023-02-01T07:27:19.655Z,5.00
2023-02-01T07:29:49.310Z,4.90
2023-02-01T07:32:19.305Z,4.90
2023-02-01T07:34:47.688Z,4.90
2023-02-01T07:37:15.817Z,4.90
2023-02-01T07:39:43.914Z,4.90
2023-02-01T07:42:12.081Z,4.90
2023-02-01T07:44:40.251Z,5.00
2023-02-01T07:47:09.737Z,5.00
2023-02-01T07:49:37.859Z,5.00
2023-02-01T07:52:06.015Z,5.00
2023-02-01T07:54:34.138Z,5.00
2023-02-01T07:57:02.406Z,5.00
2023-02-01T07:59:30.546Z,5.10
2023-02-01T08:01:57.675Z,5.10
2023-02-01T08:04:27.264Z,5.10
2023-02-01T08:06:55.335Z,5.10
2023-02-01T08:09:23.772Z,5.10
2023-02-01T08:11:51.957Z,5.00
2023-02-01T08:14:20.072Z,5.00
2023-02-01T08:16:48.318Z,5.00
2023-02-01T08:19:16.554Z,5.00
2023-02-01T08:21:47.527Z,5.10
2023-02-01T08:24:15.694Z,5.20
2023-02-01T08:26:44.627Z,5.10
2023-02-01T08:29:13.511Z,5.10
2023-02-01T08:31:42.938Z,5.10
2023-02-01T08:34:13.099Z,5.10
2023-02-01T08:36:42.048Z,5.20
2023-02-01T08:39:12.723Z,5.20
2023-02-01T08:41:41.061Z,5.20
2023-02-01T08:44:09.153Z,5.20
2023-02-01T08:46:37.327Z,5.20
2023-02-01T08:49:05.466Z,5.30
2023-02-01T08:51:33.660Z,5.30
2023-02-01T08:54:02.424Z,5.30
2023-02-01T08:56:32.121Z,5.40
2023-02-01T08:59:00.377Z,5.30
2023-02-01T09:01:30.131Z,5.30
2023-02-01T09:03:58.451Z,5.20
2023-02-01T09:06:26.793Z,5.30
2023-02-01T09:08:54.883Z,5.40
2023-02-01T09:11:23.502Z,5.30
2023-02-01T09:13:53.247Z,5.30
2023-02-01T09:16:22.949Z,5.40
2023-02-01T09:19:01.500Z,5.40
2023-02-01T09:21:39.342Z,5.40
2023-02-01T09:24:08.162Z,5.40
2023-02-01T09:26:36.307Z,5.40
2023-02-01T09:29:07.291Z,5.50
2023-02-01T09:31:35.759Z,5.50
2023-02-01T09:34:04.079Z,5.50
2023-02-01T09:36:32.432Z,5.40
2023-02-01T09:39:01.207Z,5.40
2023-02-01T09:41:40.642Z,5.40
2023-02-01T09:44:20.333Z,5.40
2023-02-01T09:46:49.197Z,5.50
2023-02-01T09:49:22.744Z,5.40
2023-02-01T09:51:53.208Z,5.40
2023-02-01T09:54:24.769Z,5.50
2023-02-01T09:56:58.343Z,5.50
2023-02-01T09:59:35.604Z,5.50
2023-02-01T10:02:05.272Z,5.50
2023-02-01T10:04:34.617Z,5.50
2023-02-01T10:07:15.881Z,5.50
2023-02-01T10:09:55.045Z,5.50
2023-02-01T10:13:07.565Z,5.60
2023-02-01T10:15:56.653Z,5.50
2023-02-01T10:18:41.325Z,5.60
2023-02-01T10:21:20.600Z,5.60
2023-02-01T10:24:17.416Z,5.60
2023-02-01T10:26:48.175Z,5.70
2023-02-01T10:29:20.378Z,5.60
2023-02-01T10:31:50.326Z,5.70
2023-02-01T10:34:23.205Z,5.70
2023-02-01T10:37:02.085Z,5.70
2023-02-01T10:39:30.298Z,5.80
2023-02-01T10:41:58.982Z,5.80
2023-02-01T10:44:30.610Z,5.80
2023-02-01T10:47:00.289Z,5.80
2023-02-01T10:49:35.924Z,5.80
2023-02-01T10:52:13.547Z,5.80
2023-02-01T10:54:43.023Z,5.90
2023-02-01T10:57:12.252Z,5.90
2023-02-01T10:59:40.364Z,5.80
2023-02-01T11:02:21.323Z,5.90
2023-02-01T11:04:49.728Z,5.90
2023-02-01T11:07:24.866Z,5.90
2023-02-01T11:09:55.970Z,5.90
2023-02-01T11:12:31.615Z,5.90
2023-02-01T11:15:04.370Z,5.90
2023-02-01T11:17:38.542Z,6.00
2023-02-01T11:20:14.965Z,6.00
2023-02-01T11:22:49.404Z,6.10
2023-02-01T11:25:20.270Z,6.10
2023-02-01T11:27:54.718Z,6.10
2023-02-01T11:30:33.825Z,6.10
2023-02-01T11:33:06.789Z,6.10
2023-02-01T11:35:39.518Z,6.10
2023-02-01T11:38:16.834Z,6.20
2023-02-01T11:40:45.046Z,6.30
2023-02-01T11:43:19.404Z,6.30
2023-02-01T11:45:56.993Z,6.20
2023-02-01T11:48:28.751Z,6.10
2023-02-01T11:51:14.628Z,6.20
2023-02-01T11:53:58.543Z,6.20
2023-02-01T11:56:34.617Z,6.20
2023-02-01T11:59:24.887Z,6.20
2023-02-01T12:02:13.791Z,6.20
2023-02-01T12:05:09.581Z,6.20
2023-02-01T12:07:54.099Z,6.20
2023-02-01T12:10:35.257Z,6.20
2023-02-01T12:13:16.217Z,6.20
2023-02-01T12:15:58.305Z,6.20
2023-02-01T12:19:00.971Z,6.20
2023-02-01T12:21:49.819Z,6.20
2023-02-01T12:24:47.397Z,6.20
2023-02-01T12:27:53.795Z,6.30
2023-02-01T12:30:51.530Z,6.30
2023-02-01T12:33:30.128Z,6.30
2023-02-01T12:36:10.321Z,6.30
2023-02-01T12:38:52.253Z,6.30
2023-02-01T12:41:51.163Z,6.30
2023-02-01T12:44:39.218Z,6.30
2023-02-01T12:47:12.989Z,6.40
2023-02-01T12:49:50.740Z,6.30
2023-02-01T12:52:25.575Z,6.40
2023-02-01T12:55:01.579Z,6.40
2023-02-01T12:57:34.179Z,6.30
2023-02-01T13:00:11.492Z,6.40
2023-02-01T13:02:44.535Z,6.40
2023-02-01T13:05:19.522Z,6.40
2023-02-01T13:07:54.112Z,6.30
2023-02-01T13:10:39.185Z,6.40
2023-02-01T13:13:14.150Z,6.50
2023-02-01T13:15:45.948Z,6.50
2023-02-01T13:18:19.525Z,6.60
2023-02-01T13:20:53.310Z,6.60
2023-02-01T13:23:28.270Z,6.70
2023-02-01T13:25:58.237Z,6.60
2023-02-01T13:28:30.104Z,6.60
2023-02-01T13:31:16.843Z,6.70
2023-02-01T13:34:06.800Z,6.80
2023-02-01T13:37:00.240Z,6.70
2023-02-01T13:39:58.520Z,6.60
2023-02-01T13:42:31.056Z,6.70
2023-02-01T13:45:01.822Z,6.80
2023-02-01T13:47:33.450Z,6.80
2023-02-01T13:50:06.412Z,6.80
2023-02-01T13:52:42.419Z,6.90
2023-02-01T13:55:26.822Z,6.80
2023-02-01T13:58:16.890Z,6.70
2023-02-01T14:00:45.905Z,6.70
2023-02-01T14:03:20.069Z,6.70
2023-02-01T14:06:01.812Z,6.60
2023-02-01T14:08:46.125Z,6.50
2023-02-01T14:11:35.152Z,6.50
2023-02-01T14:14:43.644Z,6.50
2023-02-01T14:17:42.359Z,6.50
2023-02-01T14:20:56.743Z,6.50
2023-02-01T14:23:31.974Z,6.50
2023-02-01T14:26:11.129Z,6.50
2023-02-01T14:28:44.185Z,6.40
2023-02-01T14:31:41.638Z,6.50
2023-02-01T14:34:17.693Z,6.50
2023-02-01T14:36:52.898Z,6.50
2023-02-01T14:39:52.451Z,6.50
2023-02-01T14:42:26.423Z,6.50
2023-02-01T14:44:59.063Z,6.50
2023-02-01T14:47:36.383Z,6.60
2023-02-01T14:50:34.662Z,6.60
2023-02-01T14:53:21.387Z,6.60
2023-02-01T14:55:53.179Z,6.60
2023-02-01T14:58:35.071Z,6.60
2023-02-01T15:01:05.640Z,6.60
2023-02-01T15:03:47.574Z,6.60
2023-02-01T15:06:28.351Z,6.60
2023-02-01T15:08:59.644Z,6.60
2023-02-01T15:11:28.252Z,6.60
2023-02-01T15:13:57.580Z,6.60
2023-02-01T15:16:27.688Z,6.60
2023-02-01T15:19:16.359Z,6.60
2023-02-01T15:21:47.295Z,6.70
2023-02-01T15:24:20.419Z,6.80
2023-02-01T15:26:48.716Z,6.90
2023-02-01T15:29:17.437Z,6.90
2023-02-01T15:31:47.681Z,6.80
2023-02-01T15:34:17.917Z,6.80
2023-02-01T15:37:01.498Z,6.90
2023-02-01T15:39:32.035Z,6.80
2023-02-01T15:42:03.197Z,6.90
2023-02-01T15:44:35.599Z,6.90
2023-02-01T15:47:10.679Z,6.90
2023-02-01T15:49:43.593Z,6.90
2023-02-01T15:52:23.087Z,6.90
2023-02-01T15:54:54.652Z,6.80
2023-02-01T15:57:31.368Z,6.70
2023-02-01T16:00:02.221Z,6.60
2023-02-01T16:02:45.892Z,6.60
2023-02-01T16:05:34.300Z,6.60
2023-02-01T16:08:05.784Z,6.60
2023-02-01T16:10:41.917Z,6.70
2023-02-01T16:13:10.769Z,6.70
2023-02-01T16:15:39.678Z,6.60
2023-02-01T16:18:09.191Z,6.60
2023-02-01T16:20:39.991Z,6.60
2023-02-01T16:23:09.665Z,6.60
2023-02-01T16:25:38.770Z,6.60
2023-02-01T16:28:07.205Z,6.70
2023-02-01T16:30:35.842Z,6.70
2023-02-01T16:33:06.275Z,6.70
2023-02-01T16:35:37.427Z,6.70
2023-02-01T16:38:09.772Z,6.80
2023-02-01T16:40:38.118Z,6.70
2023-02-01T16:43:14.186Z,6.70
2023-02-01T16:45:43.438Z,6.70
2023-02-01T16:48:20.614Z,6.80
2023-02-01T16:50:51.639Z,6.80
2023-02-01T16:53:21.541Z,6.80
2023-02-01T16:55:50.455Z,6.80
2023-02-01T16:58:19.075Z,6.90
2023-02-01T17:00:48.601Z,6.80
2023-02-01T17:03:18.400Z,6.80
2023-02-01T17:05:49.333Z,6.80
2023-02-01T17:08:23.665Z,6.80
2023-02-01T17:10:51.703Z,6.80
2023-02-01T17:13:19.837Z,6.90
2023-02-01T17:15:53.207Z,6.90
2023-02-01T17:18:21.489Z,6.90
2023-02-01T17:20:52.195Z,6.90
2023-02-01T17:23:21.972Z,6.90
2023-02-01T17:25:50.125Z,6.90
2023-02-01T17:28:18.224Z,7.00
2023-02-01T17:30:46.577Z,6.90
2023-02-01T17:33:25.748Z,6.80
2023-02-01T17:35:57.089Z,6.80
2023-02-01T17:38:26.753Z,6.80
2023-02-01T17:40:54.879Z,6.80
2023-02-01T17:43:24.413Z,6.90
2023-02-01T17:45:55.370Z,6.70
2023-02-01T17:48:24.802Z,6.60
2023-02-01T17:50:58.577Z,6.70
2023-02-01T17:53:29.077Z,6.60
2023-02-01T17:55:58.265Z,6.70
2023-02-01T17:58:27.100Z,6.80
2023-02-01T18:00:55.344Z,6.90
2023-02-01T18:03:26.457Z,6.90
2023-02-01T18:05:56.193Z,6.90
2023-02-01T18:08:26.118Z,6.90
2023-02-01T18:10:59.756Z,6.90
2023-02-01T18:13:28.202Z,6.90
2023-02-01T18:15:56.898Z,6.80
2023-02-01T18:18:24.968Z,6.70
2023-02-01T18:20:53.416Z,6.50
2023-02-01T18:23:23.362Z,6.60
2023-02-01T18:25:52.560Z,6.50
2023-02-01T18:28:22.130Z,6.60
2023-02-01T18:30:51.822Z,6.70
2023-02-01T18:33:21.911Z,6.60
2023-02-01T18:35:50.401Z,6.70
2023-02-01T18:38:18.527Z,6.70
2023-02-01T18:40:51.562Z,6.70
2023-02-01T18:43:21.546Z,6.80
2023-02-01T18:45:50.112Z,6.70
2023-02-01T18:48:21.271Z,6.70
2023-02-01T18:50:51.939Z,6.60
2023-02-01T18:53:23.761Z,6.60
2023-02-01T18:55:52.651Z,6.70
2023-02-01T18:58:26.148Z,6.60
2023-02-01T19:00:55.505Z,6.60
2023-02-01T19:03:26.585Z,6.50
2023-02-01T19:05:56.362Z,6.60
2023-02-01T19:08:25.862Z,6.50
2023-02-01T19:10:54.333Z,6.50
2023-02-01T19:13:27.074Z,6.50
2023-02-01T19:15:56.286Z,6.50
2023-02-01T19:18:24.460Z,6.50
2023-02-01T19:20:54.935Z,6.50
2023-02-01T19:23:23.883Z,6.50
2023-02-01T19:25:52.250Z,6.60
2023-02-01T19:28:20.467Z,6.60
2023-02-01T19:30:50.049Z,6.60
2023-02-01T19:33:18.600Z,6.50
2023-02-01T19:35:46.668Z,6.50
2023-02-01T19:38:15.400Z,6.50
2023-02-01T19:40:43.510Z,6.50
2023-02-01T19:43:11.666Z,6.60
2023-02-01T19:45:39.965Z,6.60
2023-02-01T19:48:09.564Z,6.50
2023-02-01T19:50:37.649Z,6.50
2023-02-01T19:53:05.733Z,6.50
2023-02-01T19:55:34.105Z,6.60
2023-02-01T19:58:05.269Z,6.50
2023-02-01T20:00:32.669Z,6.50
2023-02-01T20:03:00.730Z,6.50
2023-02-01T20:05:30.296Z,6.50
2023-02-01T20:07:58.390Z,6.50
2023-02-01T20:10:26.472Z,6.50
2023-02-01T20:12:54.573Z,6.60
2023-02-01T20:15:24.747Z,6.60
2023-02-01T20:17:53.160Z,6.60
2023-02-01T20:20:21.380Z,6.60
2023-02-01T20:22:53.187Z,6.60
2023-02-01T20:25:21.602Z,6.60
2023-02-01T20:27:51.994Z,6.70
2023-02-01T20:30:20.860Z,6.80
2023-02-01T20:32:50.705Z,6.70
2023-02-01T20:35:19.332Z,6.60
2023-02-01T20:37:48.931Z,6.70
2023-02-01T20:40:18.911Z,6.70
2023-02-01T20:42:47.130Z,6.60
2023-02-01T20:45:15.771Z,6.60
2023-02-01T20:47:43.891Z,6.60
2023-02-01T20:50:12.944Z,6.70
2023-02-01T20:52:40.994Z,6.70
2023-02-01T20:55:09.981Z,6.70
2023-02-01T20:57:39.654Z,6.70
2023-02-01T21:00:10.479Z,6.70
2023-02-01T21:02:39.592Z,6.60
2023-02-01T21:05:08.661Z,6.60
2023-02-01T21:07:37.823Z,6.40
2023-02-01T21:10:06.345Z,6.50
2023-02-01T21:12:34.624Z,6.60
2023-02-01T21:15:05.352Z,6.70
2023-02-01T21:17:34.153Z,6.60
2023-02-01T21:20:02.316Z,6.50
2023-02-01T21:22:30.456Z,6.40
2023-02-01T21:24:59.050Z,6.50
2023-02-01T21:27:28.112Z,6.40
2023-02-01T21:29:56.337Z,6.40
2023-02-01T21:32:26.172Z,6.50
2023-02-01T21:34:54.486Z,6.40
2023-02-01T21:37:25.568Z,6.40
2023-02-01T21:39:54.194Z,6.50
2023-02-01T21:42:24.523Z,6.50
2023-02-01T21:44:53.243Z,6.40
2023-02-01T21:47:26.017Z,6.30
2023-02-01T21:49:56.846Z,6.30
2023-02-01T21:52:25.324Z,6.30
2023-02-01T21:54:59.786Z,6.30
2023-02-01T21:57:28.804Z,6.40
2023-02-01T21:59:58.750Z,6.20
2023-02-01T22:02:27.376Z,6.20
2023-02-01T22:04:57.742Z,6.40
2023-02-01T22:07:26.095Z,6.40
2023-02-01T22:09:54.485Z,6.20
2023-02-01T22:12:23.214Z,6.40
2023-02-01T22:14:51.325Z,6.40
2023-02-01T22:17:19.598Z,6.30
2023-02-01T22:19:47.798Z,6.20
2023-02-01T22:22:17.367Z,6.10
2023-02-01T22:24:45.542Z,6.10
2023-02-01T22:27:14.728Z,6.00
2023-02-01T22:29:44.586Z,6.00
2023-02-01T22:32:13.982Z,6.00
2023-02-01T22:34:42.658Z,6.10
2023-02-01T22:37:12.100Z,6.00
2023-02-01T22:39:42.088Z,5.90
2023-02-01T22:42:10.244Z,5.80
2023-02-01T22:44:39.679Z,5.90
2023-02-01T22:47:09.586Z,5.90
2023-02-01T22:49:37.728Z,5.90
2023-02-01T22:52:05.976Z,5.90
2023-02-01T22:54:34.184Z,5.90
2023-02-01T22:57:03.777Z,5.90
2023-02-01T22:59:31.867Z,5.90
2023-02-01T23:02:00.065Z,5.90
2023-02-01T23:04:28.441Z,6.00
2023-02-01T23:06:56.587Z,6.00
2023-02-01T23:09:26.146Z,5.90
2023-02-01T23:11:54.974Z,5.90
2023-02-01T23:14:24.456Z,5.90
2023-02-01T23:16:52.786Z,6.00
2023-02-01T23:19:21.400Z,6.00
2023-02-01T23:21:50.075Z,5.90
2023-02-01T23:24:18.392Z,5.90
2023-02-01T23:26:46.685Z,5.90
2023-02-01T23:29:19.350Z,5.80
2023-02-01T23:31:48.869Z,5.90
2023-02-01T23:34:17.020Z,5.80
2023-02-01T23:36:45.461Z,5.80
2023-02-01T23:39:13.692Z,5.90
2023-02-01T23:41:41.762Z,5.80
2023-02-01T23:44:10.239Z,5.70
2023-02-01T23:46:41.223Z,5.70
2023-02-01T23:49:11.303Z,5.80
2023-02-01T23:51:39.463Z,5.70
2023-02-01T23:54:08.228Z,5.70
2023-02-01T23:56:37.938Z,5.70
2023-02-01T23:59:09.381Z,5.70
